Washburn, WI (54891)

6:05 AM CDT on April 21, 2015 (GMT -0500)
Washburn Hilltop | | Change Station
CLOSE
Current Station
Personal Weather Station
Location: Washburn, WI
Elevation: 981 ft
Nearby Weather Stations

Elev 981 ft 46.69 °N, 90.91 °W | Updated 41 seconds ago

Overcast
Overcast
32.2 °F
Feels Like 32 °F
N
0.2
Wind Variable Wind from West
Gusts 2.5 mph

Today
High -- | Low -- °F
--% Chance of Precip.
Yesterday
High -- | Low -- °F
Precip. -- in
6:05 AM 7:59 PM
Waxing Crescent, 10% visible
Pressure 29.39 in
Visibility 10.0 miles
Clouds Mostly Cloudy 8000 ft
Overcast 12000 ft
Windchill 32 °F
Dew Point 31 °F
Humidity 96%
Rainfall 0.00 in
Snow Depth Not available.
UV 0.0 out of 12
Pollen 10.00 out of 12
Air Quality Not available.
Flu Activity Local Activity
METAR KASX 211053Z AUTO 26011KT 10SM BKN080 OVC120 M01/M02 A2936 RMK AO2 SLP952 T10061017

More Conditions Fewer Conditions

Pressure 29.39 in
Visibility 10.0 miles
Clouds Mostly Cloudy 8000 ft
Overcast 12000 ft
Windchill 32 °F
Dew Point 31 °F
Humidity 96%
Rainfall 0.00 in
Snow Depth Not available.
UV 0.0 out of 12
Pollen 10.00 out of 12
Air Quality Not available.
Flu Activity Local Activity
METAR KASX 211053Z AUTO 26011KT 10SM BKN080 OVC120 M01/M02 A2936 RMK AO2 SLP952 T10061017

More Conditions Fewer Conditions

10-Day Weather Forecast

Almanac

Astronomy

Apr. 21, 2015 Rise Set
Actual Time
Civil Twilight
Nautical Twilight
Astronomical Twilight
Moon
Length of Visible Light
Length of Day
Tomorrow will be .
, % of the Moon is Illuminated

Today's Extremes

State Highs State Lows

Community

WunderPhotos

Upload Photos

1,815,342 photos uploaded!

WunderBlogs® & News

Nearby

Air Quality

  Air Quality AQ Index Pollutant
Not available.

Snow Depth

Station Depth Elevation

Earthquake Activity

City Distance Mag. Time & Date
Minimum magnitude displayed is 2.5.

Coastal Water Temperatures

Place Temperature

Stations

Nearby Weather Stations

Station Location Temp. Windchill Dew Point Humidity Wind Precip. Elev Updated Type